sensor_id;sensor_type;location;lat;lon;timestamp;P1;P2;P0
55754;PMS5003;41674;52.290;-1.474;2023-08-08T00:00:16;3;1;
55754;PMS5003;41674;52.290;-1.474;2023-08-08T00:02:46;2;2;
55754;PMS5003;41674;52.290;-1.474;2023-08-08T00:05:15;3;3;
55754;PMS5003;41674;52.290;-1.474;2023-08-08T00:07:45;5;3;
55754;PMS5003;41674;52.290;-1.474;2023-08-08T00:10:14;2;2;
55754;PMS5003;41674;52.290;-1.474;2023-08-08T00:12:44;1;1;
55754;PMS5003;41674;52.290;-1.474;2023-08-08T00:15:14;3;2;
55754;PMS5003;41674;52.290;-1.474;2023-08-08T00:17:43;4;1;
55754;PMS5003;41674;52.290;-1.474;2023-08-08T00:20:13;4;3;
55754;PMS5003;41674;52.290;-1.474;2023-08-08T00:22:42;3;3;
55754;PMS5003;41674;52.290;-1.474;2023-08-08T00:25:12;4;2;
55754;PMS5003;41674;52.290;-1.474;2023-08-08T00:27:42;6;4;
55754;PMS5003;41674;52.290;-1.474;2023-08-08T00:30:11;3;3;
55754;PMS5003;41674;52.290;-1.474;2023-08-08T00:32:41;2;2;
55754;PMS5003;41674;52.290;-1.474;2023-08-08T00:35:10;3;1;
55754;PMS5003;41674;52.290;-1.474;2023-08-08T00:37:40;3;3;
55754;PMS5003;41674;52.290;-1.474;2023-08-08T00:40:10;2;2;
55754;PMS5003;41674;52.290;-1.474;2023-08-08T00:42:39;4;2;
55754;PMS5003;41674;52.290;-1.474;2023-08-08T00:45:09;2;2;
55754;PMS5003;41674;52.290;-1.474;2023-08-08T00:47:39;0;0;
55754;PMS5003;41674;52.290;-1.474;2023-08-08T00:50:08;2;2;
55754;PMS5003;41674;52.290;-1.474;2023-08-08T00:52:38;2;2;
55754;PMS5003;41674;52.290;-1.474;2023-08-08T00:55:07;1;1;
55754;PMS5003;41674;52.290;-1.474;2023-08-08T00:57:37;0;0;
55754;PMS5003;41674;52.290;-1.474;2023-08-08T01:00:07;2;2;
55754;PMS5003;41674;52.290;-1.474;2023-08-08T01:02:36;3;3;
55754;PMS5003;41674;52.290;-1.474;2023-08-08T01:05:06;1;1;
55754;PMS5003;41674;52.290;-1.474;2023-08-08T01:07:37;1;1;
55754;PMS5003;41674;52.290;-1.474;2023-08-08T01:10:06;1;1;
55754;PMS5003;41674;52.290;-1.474;2023-08-08T01:12:34;3;2;
55754;PMS5003;41674;52.290;-1.474;2023-08-08T01:15:04;1;1;
55754;PMS5003;41674;52.290;-1.474;2023-08-08T01:17:33;2;2;
55754;PMS5003;41674;52.290;-1.474;2023-08-08T01:20:03;2;2;
55754;PMS5003;41674;52.290;-1.474;2023-08-08T01:22:45;2;2;
55754;PMS5003;41674;52.290;-1.474;2023-08-08T01:25:02;1;1;
55754;PMS5003;41674;52.290;-1.474;2023-08-08T01:27:32;3;2;
55754;PMS5003;41674;52.290;-1.474;2023-08-08T01:30:02;1;1;
55754;PMS5003;41674;52.290;-1.474;2023-08-08T01:32:31;2;2;
55754;PMS5003;41674;52.290;-1.474;2023-08-08T01:35:01;1;1;
55754;PMS5003;41674;52.290;-1.474;2023-08-08T01:37:32;3;2;
55754;PMS5003;41674;52.290;-1.474;2023-08-08T01:40:00;3;3;
55754;PMS5003;41674;52.290;-1.474;2023-08-08T01:42:30;1;1;
55754;PMS5003;41674;52.290;-1.474;2023-08-08T01:44:59;1;1;
55754;PMS5003;41674;52.290;-1.474;2023-08-08T01:47:29;2;2;
55754;PMS5003;41674;52.290;-1.474;2023-08-08T01:49:58;2;2;
55754;PMS5003;41674;52.290;-1.474;2023-08-08T01:52:28;2;2;
55754;PMS5003;41674;52.290;-1.474;2023-08-08T01:54:58;1;1;
55754;PMS5003;41674;52.290;-1.474;2023-08-08T01:57:27;3;1;
55754;PMS5003;41674;52.290;-1.474;2023-08-08T01:59:57;2;2;
55754;PMS5003;41674;52.290;-1.474;2023-08-08T02:02:26;4;4;
55754;PMS5003;41674;52.290;-1.474;2023-08-08T02:04:56;2;2;
55754;PMS5003;41674;52.290;-1.474;2023-08-08T02:07:26;2;2;
55754;PMS5003;41674;52.290;-1.474;2023-08-08T02:09:55;2;2;
55754;PMS5003;41674;52.290;-1.474;2023-08-08T02:12:25;1;1;
55754;PMS5003;41674;52.290;-1.474;2023-08-08T02:14:55;3;3;
55754;PMS5003;41674;52.290;-1.474;2023-08-08T02:17:24;2;2;
55754;PMS5003;41674;52.290;-1.474;2023-08-08T02:19:54;1;1;
55754;PMS5003;41674;52.290;-1.474;2023-08-08T02:22:25;3;2;
55754;PMS5003;41674;52.290;-1.474;2023-08-08T02:24:53;1;1;
55754;PMS5003;41674;52.290;-1.474;2023-08-08T02:27:23;2;2;
55754;PMS5003;41674;52.290;-1.474;2023-08-08T02:29:52;3;2;
55754;PMS5003;41674;52.290;-1.474;2023-08-08T02:32:22;2;2;
55754;PMS5003;41674;52.290;-1.474;2023-08-08T02:34:51;1;1;
55754;PMS5003;41674;52.290;-1.474;2023-08-08T02:37:21;0;0;
55754;PMS5003;41674;52.290;-1.474;2023-08-08T02:39:51;3;2;
55754;PMS5003;41674;52.290;-1.474;2023-08-08T02:42:20;4;3;
55754;PMS5003;41674;52.290;-1.474;2023-08-08T02:44:50;1;1;
55754;PMS5003;41674;52.290;-1.474;2023-08-08T02:47:19;0;0;
55754;PMS5003;41674;52.290;-1.474;2023-08-08T02:49:49;4;2;
55754;PMS5003;41674;52.290;-1.474;2023-08-08T02:52:19;3;1;
55754;PMS5003;41674;52.290;-1.474;2023-08-08T02:54:48;4;2;
55754;PMS5003;41674;52.290;-1.474;2023-08-08T02:57:18;2;2;
55754;PMS5003;41674;52.290;-1.474;2023-08-08T02:59:47;1;1;
55754;PMS5003;41674;52.290;-1.474;2023-08-08T03:02:17;0;0;
55754;PMS5003;41674;52.290;-1.474;2023-08-08T03:04:47;3;3;
55754;PMS5003;41674;52.290;-1.474;2023-08-08T03:07:16;2;2;
55754;PMS5003;41674;52.290;-1.474;2023-08-08T03:09:46;3;2;
55754;PMS5003;41674;52.290;-1.474;2023-08-08T03:12:15;2;2;
55754;PMS5003;41674;52.290;-1.474;2023-08-08T03:14:45;1;1;
55754;PMS5003;41674;52.290;-1.474;2023-08-08T03:17:15;3;3;
55754;PMS5003;41674;52.290;-1.474;2023-08-08T03:19:44;1;1;
55754;PMS5003;41674;52.290;-1.474;2023-08-08T03:22:14;2;2;
55754;PMS5003;41674;52.290;-1.474;2023-08-08T03:24:44;1;1;
55754;PMS5003;41674;52.290;-1.474;2023-08-08T03:27:13;5;4;
55754;PMS5003;41674;52.290;-1.474;2023-08-08T03:29:43;1;1;
55754;PMS5003;41674;52.290;-1.474;2023-08-08T03:32:12;3;3;
55754;PMS5003;41674;52.290;-1.474;2023-08-08T03:34:42;3;3;
55754;PMS5003;41674;52.290;-1.474;2023-08-08T03:37:12;3;3;
55754;PMS5003;41674;52.290;-1.474;2023-08-08T03:39:41;2;1;
55754;PMS5003;41674;52.290;-1.474;2023-08-08T03:42:11;3;2;
55754;PMS5003;41674;52.290;-1.474;2023-08-08T03:44:41;2;2;
55754;PMS5003;41674;52.290;-1.474;2023-08-08T03:47:10;2;2;
55754;PMS5003;41674;52.290;-1.474;2023-08-08T03:49:40;2;2;
55754;PMS5003;41674;52.290;-1.474;2023-08-08T03:52:09;2;2;
55754;PMS5003;41674;52.290;-1.474;2023-08-08T03:54:39;1;1;
55754;PMS5003;41674;52.290;-1.474;2023-08-08T03:57:08;4;4;
55754;PMS5003;41674;52.290;-1.474;2023-08-08T03:59:38;5;4;
55754;PMS5003;41674;52.290;-1.474;2023-08-08T04:02:08;2;2;
55754;PMS5003;41674;52.290;-1.474;2023-08-08T04:04:37;3;3;
55754;PMS5003;41674;52.290;-1.474;2023-08-08T04:07:07;3;3;
55754;PMS5003;41674;52.290;-1.474;2023-08-08T04:09:36;3;3;
55754;PMS5003;41674;52.290;-1.474;2023-08-08T04:12:06;3;3;
55754;PMS5003;41674;52.290;-1.474;2023-08-08T04:14:36;4;3;
55754;PMS5003;41674;52.290;-1.474;2023-08-08T04:17:05;3;3;
55754;PMS5003;41674;52.290;-1.474;2023-08-08T04:19:35;3;3;
55754;PMS5003;41674;52.290;-1.474;2023-08-08T04:22:05;3;3;
55754;PMS5003;41674;52.290;-1.474;2023-08-08T04:24:34;3;3;
55754;PMS5003;41674;52.290;-1.474;2023-08-08T04:27:04;3;3;
55754;PMS5003;41674;52.290;-1.474;2023-08-08T04:29:33;3;3;
55754;PMS5003;41674;52.290;-1.474;2023-08-08T04:32:03;3;3;
55754;PMS5003;41674;52.290;-1.474;2023-08-08T04:34:33;4;3;
55754;PMS5003;41674;52.290;-1.474;2023-08-08T04:37:02;4;4;
55754;PMS5003;41674;52.290;-1.474;2023-08-08T04:39:32;4;4;
55754;PMS5003;41674;52.290;-1.474;2023-08-08T04:42:01;3;3;
55754;PMS5003;41674;52.290;-1.474;2023-08-08T04:44:31;2;2;
55754;PMS5003;41674;52.290;-1.474;2023-08-08T04:47:01;4;4;
55754;PMS5003;41674;52.290;-1.474;2023-08-08T04:49:30;6;5;
55754;PMS5003;41674;52.290;-1.474;2023-08-08T04:52:00;7;4;
55754;PMS5003;41674;52.290;-1.474;2023-08-08T04:54:29;6;4;
55754;PMS5003;41674;52.290;-1.474;2023-08-08T04:56:59;3;3;
55754;PMS5003;41674;52.290;-1.474;2023-08-08T04:59:29;2;2;
55754;PMS5003;41674;52.290;-1.474;2023-08-08T05:01:58;3;3;
55754;PMS5003;41674;52.290;-1.474;2023-08-08T05:04:28;6;4;
55754;PMS5003;41674;52.290;-1.474;2023-08-08T05:06:58;2;2;
55754;PMS5003;41674;52.290;-1.474;2023-08-08T05:09:27;4;4;
55754;PMS5003;41674;52.290;-1.474;2023-08-08T05:11:57;5;5;
55754;PMS5003;41674;52.290;-1.474;2023-08-08T05:14:26;2;2;
55754;PMS5003;41674;52.290;-1.474;2023-08-08T05:16:56;2;2;
55754;PMS5003;41674;52.290;-1.474;2023-08-08T05:19:26;3;3;
55754;PMS5003;41674;52.290;-1.474;2023-08-08T05:21:55;4;4;
55754;PMS5003;41674;52.290;-1.474;2023-08-08T05:24:25;3;3;
55754;PMS5003;41674;52.290;-1.474;2023-08-08T05:26:54;4;4;
55754;PMS5003;41674;52.290;-1.474;2023-08-08T05:29:24;3;3;
55754;PMS5003;41674;52.290;-1.474;2023-08-08T05:31:54;4;4;
55754;PMS5003;41674;52.290;-1.474;2023-08-08T05:34:23;5;5;
55754;PMS5003;41674;52.290;-1.474;2023-08-08T05:36:53;4;4;
55754;PMS5003;41674;52.290;-1.474;2023-08-08T05:39:22;5;4;
55754;PMS5003;41674;52.290;-1.474;2023-08-08T05:41:52;5;4;
55754;PMS5003;41674;52.290;-1.474;2023-08-08T05:44:22;2;2;
55754;PMS5003;41674;52.290;-1.474;2023-08-08T05:46:51;6;3;
55754;PMS5003;41674;52.290;-1.474;2023-08-08T05:49:21;3;3;
55754;PMS5003;41674;52.290;-1.474;2023-08-08T05:51:50;5;4;
55754;PMS5003;41674;52.290;-1.474;2023-08-08T05:54:20;4;4;
55754;PMS5003;41674;52.290;-1.474;2023-08-08T05:56:49;4;4;
55754;PMS5003;41674;52.290;-1.474;2023-08-08T05:59:19;6;4;
55754;PMS5003;41674;52.290;-1.474;2023-08-08T06:01:49;5;5;
55754;PMS5003;41674;52.290;-1.474;2023-08-08T06:04:18;3;3;
55754;PMS5003;41674;52.290;-1.474;2023-08-08T06:06:48;3;3;
55754;PMS5003;41674;52.290;-1.474;2023-08-08T06:09:18;4;4;
55754;PMS5003;41674;52.290;-1.474;2023-08-08T06:11:47;2;2;
55754;PMS5003;41674;52.290;-1.474;2023-08-08T06:14:17;3;3;
55754;PMS5003;41674;52.290;-1.474;2023-08-08T06:16:46;2;2;
55754;PMS5003;41674;52.290;-1.474;2023-08-08T06:19:16;5;5;
55754;PMS5003;41674;52.290;-1.474;2023-08-08T06:21:46;7;6;
55754;PMS5003;41674;52.290;-1.474;2023-08-08T06:24:15;4;3;
55754;PMS5003;41674;52.290;-1.474;2023-08-08T06:26:45;6;4;
55754;PMS5003;41674;52.290;-1.474;2023-08-08T06:29:14;3;3;
55754;PMS5003;41674;52.290;-1.474;2023-08-08T06:31:44;3;3;
55754;PMS5003;41674;52.290;-1.474;2023-08-08T06:34:14;5;5;
55754;PMS5003;41674;52.290;-1.474;2023-08-08T06:36:43;4;4;
55754;PMS5003;41674;52.290;-1.474;2023-08-08T06:39:13;3;3;
55754;PMS5003;41674;52.290;-1.474;2023-08-08T06:41:43;2;2;
55754;PMS5003;41674;52.290;-1.474;2023-08-08T06:44:12;2;2;
55754;PMS5003;41674;52.290;-1.474;2023-08-08T06:46:42;4;4;
55754;PMS5003;41674;52.290;-1.474;2023-08-08T06:49:11;4;3;
55754;PMS5003;41674;52.290;-1.474;2023-08-08T06:51:41;5;4;
55754;PMS5003;41674;52.290;-1.474;2023-08-08T06:54:10;3;3;
55754;PMS5003;41674;52.290;-1.474;2023-08-08T06:56:40;5;4;
55754;PMS5003;41674;52.290;-1.474;2023-08-08T06:59:10;4;4;
55754;PMS5003;41674;52.290;-1.474;2023-08-08T07:01:39;4;4;
55754;PMS5003;41674;52.290;-1.474;2023-08-08T07:04:09;4;4;
55754;PMS5003;41674;52.290;-1.474;2023-08-08T07:06:38;4;4;
55754;PMS5003;41674;52.290;-1.474;2023-08-08T07:09:08;5;4;
55754;PMS5003;41674;52.290;-1.474;2023-08-08T07:11:38;2;2;
55754;PMS5003;41674;52.290;-1.474;2023-08-08T07:14:07;4;3;
55754;PMS5003;41674;52.290;-1.474;2023-08-08T07:16:37;7;5;
55754;PMS5003;41674;52.290;-1.474;2023-08-08T07:19:06;2;2;
55754;PMS5003;41674;52.290;-1.474;2023-08-08T07:21:36;3;3;
55754;PMS5003;41674;52.290;-1.474;2023-08-08T07:24:06;4;3;
55754;PMS5003;41674;52.290;-1.474;2023-08-08T07:26:35;5;3;
55754;PMS5003;41674;52.290;-1.474;2023-08-08T07:29:05;5;4;
55754;PMS5003;41674;52.290;-1.474;2023-08-08T07:31:34;4;4;
55754;PMS5003;41674;52.290;-1.474;2023-08-08T07:34:04;3;3;
55754;PMS5003;41674;52.290;-1.474;2023-08-08T07:36:34;3;3;
55754;PMS5003;41674;52.290;-1.474;2023-08-08T07:39:03;2;2;
55754;PMS5003;41674;52.290;-1.474;2023-08-08T07:41:33;4;4;
55754;PMS5003;41674;52.290;-1.474;2023-08-08T07:44:02;6;5;
55754;PMS5003;41674;52.290;-1.474;2023-08-08T07:46:32;3;3;
55754;PMS5003;41674;52.290;-1.474;2023-08-08T07:49:01;4;4;
55754;PMS5003;41674;52.290;-1.474;2023-08-08T07:51:31;2;2;
55754;PMS5003;41674;52.290;-1.474;2023-08-08T07:54:01;3;3;
55754;PMS5003;41674;52.290;-1.474;2023-08-08T07:56:30;6;4;
55754;PMS5003;41674;52.290;-1.474;2023-08-08T07:59:00;3;3;
55754;PMS5003;41674;52.290;-1.474;2023-08-08T08:01:29;4;4;
55754;PMS5003;41674;52.290;-1.474;2023-08-08T08:03:59;3;3;
55754;PMS5003;41674;52.290;-1.474;2023-08-08T08:06:29;3;3;
55754;PMS5003;41674;52.290;-1.474;2023-08-08T08:08:58;3;3;
55754;PMS5003;41674;52.290;-1.474;2023-08-08T08:11:28;6;4;
55754;PMS5003;41674;52.290;-1.474;2023-08-08T08:13:57;5;4;
55754;PMS5003;41674;52.290;-1.474;2023-08-08T08:16:27;6;5;
55754;PMS5003;41674;52.290;-1.474;2023-08-08T08:18:57;2;2;
55754;PMS5003;41674;52.290;-1.474;2023-08-08T08:21:26;6;6;
55754;PMS5003;41674;52.290;-1.474;2023-08-08T08:23:56;4;4;
55754;PMS5003;41674;52.290;-1.474;2023-08-08T08:26:25;5;5;
55754;PMS5003;41674;52.290;-1.474;2023-08-08T08:28:55;3;3;
55754;PMS5003;41674;52.290;-1.474;2023-08-08T08:31:25;4;4;
55754;PMS5003;41674;52.290;-1.474;2023-08-08T08:33:54;5;5;
55754;PMS5003;41674;52.290;-1.474;2023-08-08T08:36:24;3;3;
55754;PMS5003;41674;52.290;-1.474;2023-08-08T08:38:53;7;5;
55754;PMS5003;41674;52.290;-1.474;2023-08-08T08:41:24;8;8;
55754;PMS5003;41674;52.290;-1.474;2023-08-08T08:43:53;7;7;
55754;PMS5003;41674;52.290;-1.474;2023-08-08T08:46:22;6;6;
55754;PMS5003;41674;52.290;-1.474;2023-08-08T08:48:52;6;5;
55754;PMS5003;41674;52.290;-1.474;2023-08-08T08:51:21;4;4;
55754;PMS5003;41674;52.290;-1.474;2023-08-08T08:53:51;5;5;
55754;PMS5003;41674;52.290;-1.474;2023-08-08T08:56:21;4;4;
55754;PMS5003;41674;52.290;-1.474;2023-08-08T08:58:50;4;4;
55754;PMS5003;41674;52.290;-1.474;2023-08-08T09:01:20;4;4;
55754;PMS5003;41674;52.290;-1.474;2023-08-08T09:03:49;4;4;
55754;PMS5003;41674;52.290;-1.474;2023-08-08T09:06:19;2;2;
55754;PMS5003;41674;52.290;-1.474;2023-08-08T09:08:48;5;3;
55754;PMS5003;41674;52.290;-1.474;2023-08-08T09:11:18;4;3;
55754;PMS5003;41674;52.290;-1.474;2023-08-08T09:13:48;4;4;
55754;PMS5003;41674;52.290;-1.474;2023-08-08T09:16:17;5;5;
55754;PMS5003;41674;52.290;-1.474;2023-08-08T09:18:47;4;3;
55754;PMS5003;41674;52.290;-1.474;2023-08-08T09:21:17;4;4;
55754;PMS5003;41674;52.290;-1.474;2023-08-08T09:23:46;3;2;
55754;PMS5003;41674;52.290;-1.474;2023-08-08T09:26:16;3;3;
55754;PMS5003;41674;52.290;-1.474;2023-08-08T09:28:45;3;2;
55754;PMS5003;41674;52.290;-1.474;2023-08-08T09:31:15;4;4;
55754;PMS5003;41674;52.290;-1.474;2023-08-08T09:33:44;5;3;
55754;PMS5003;41674;52.290;-1.474;2023-08-08T09:36:14;4;4;
55754;PMS5003;41674;52.290;-1.474;2023-08-08T09:38:43;2;2;
55754;PMS5003;41674;52.290;-1.474;2023-08-08T09:41:13;2;2;
55754;PMS5003;41674;52.290;-1.474;2023-08-08T09:43:43;4;4;
55754;PMS5003;41674;52.290;-1.474;2023-08-08T09:46:12;3;3;
55754;PMS5003;41674;52.290;-1.474;2023-08-08T09:48:42;2;2;
55754;PMS5003;41674;52.290;-1.474;2023-08-08T09:51:11;3;3;
55754;PMS5003;41674;52.290;-1.474;2023-08-08T09:53:41;2;2;
55754;PMS5003;41674;52.290;-1.474;2023-08-08T09:56:10;2;2;
55754;PMS5003;41674;52.290;-1.474;2023-08-08T09:58:40;1;1;
55754;PMS5003;41674;52.290;-1.474;2023-08-08T10:01:09;1;0;
55754;PMS5003;41674;52.290;-1.474;2023-08-08T10:03:39;2;2;
55754;PMS5003;41674;52.290;-1.474;2023-08-08T10:06:09;1;1;
55754;PMS5003;41674;52.290;-1.474;2023-08-08T10:08:38;1;1;
55754;PMS5003;41674;52.290;-1.474;2023-08-08T10:11:08;1;1;
55754;PMS5003;41674;52.290;-1.474;2023-08-08T10:13:37;1;1;
55754;PMS5003;41674;52.290;-1.474;2023-08-08T10:16:07;1;1;
55754;PMS5003;41674;52.290;-1.474;2023-08-08T10:18:36;1;1;
55754;PMS5003;41674;52.290;-1.474;2023-08-08T10:21:06;2;2;
55754;PMS5003;41674;52.290;-1.474;2023-08-08T10:23:36;1;1;
55754;PMS5003;41674;52.290;-1.474;2023-08-08T10:26:05;2;1;
55754;PMS5003;41674;52.290;-1.474;2023-08-08T10:28:34;1;1;
55754;PMS5003;41674;52.290;-1.474;2023-08-08T10:31:04;4;3;
55754;PMS5003;41674;52.290;-1.474;2023-08-08T10:36:04;1;1;
55754;PMS5003;41674;52.290;-1.474;2023-08-08T10:38:39;2;2;
55754;PMS5003;41674;52.290;-1.474;2023-08-08T10:41:02;1;1;
55754;PMS5003;41674;52.290;-1.474;2023-08-08T10:43:32;3;3;
55754;PMS5003;41674;52.290;-1.474;2023-08-08T10:46:01;1;1;
55754;PMS5003;41674;52.290;-1.474;2023-08-08T10:48:31;3;2;
55754;PMS5003;41674;52.290;-1.474;2023-08-08T10:51:00;3;3;
55754;PMS5003;41674;52.290;-1.474;2023-08-08T10:53:30;3;3;
55754;PMS5003;41674;52.290;-1.474;2023-08-08T10:56:00;4;3;
55754;PMS5003;41674;52.290;-1.474;2023-08-08T10:58:35;2;2;
55754;PMS5003;41674;52.290;-1.474;2023-08-08T11:00:58;3;3;
55754;PMS5003;41674;52.290;-1.474;2023-08-08T11:03:28;3;3;
55754;PMS5003;41674;52.290;-1.474;2023-08-08T11:05:58;3;3;
55754;PMS5003;41674;52.290;-1.474;2023-08-08T11:08:27;6;4;
55754;PMS5003;41674;52.290;-1.474;2023-08-08T11:10:57;2;2;
55754;PMS5003;41674;52.290;-1.474;2023-08-08T11:13:26;3;3;
55754;PMS5003;41674;52.290;-1.474;2023-08-08T11:15:56;3;3;
55754;PMS5003;41674;52.290;-1.474;2023-08-08T11:18:25;2;1;
55754;PMS5003;41674;52.290;-1.474;2023-08-08T11:20:55;2;2;
55754;PMS5003;41674;52.290;-1.474;2023-08-08T11:23:25;3;3;
55754;PMS5003;41674;52.290;-1.474;2023-08-08T11:25:57;3;3;
55754;PMS5003;41674;52.290;-1.474;2023-08-08T11:28:24;3;2;
55754;PMS5003;41674;52.290;-1.474;2023-08-08T11:30:53;3;2;
55754;PMS5003;41674;52.290;-1.474;2023-08-08T11:33:23;3;3;
55754;PMS5003;41674;52.290;-1.474;2023-08-08T11:35:52;2;2;
55754;PMS5003;41674;52.290;-1.474;2023-08-08T11:38:22;1;1;
55754;PMS5003;41674;52.290;-1.474;2023-08-08T11:40:52;3;3;
55754;PMS5003;41674;52.290;-1.474;2023-08-08T11:43:21;3;2;
55754;PMS5003;41674;52.290;-1.474;2023-08-08T11:45:52;2;1;
55754;PMS5003;41674;52.290;-1.474;2023-08-08T11:48:21;3;3;
55754;PMS5003;41674;52.290;-1.474;2023-08-08T11:50:52;6;6;
55754;PMS5003;41674;52.290;-1.474;2023-08-08T11:53:19;10;10;
55754;PMS5003;41674;52.290;-1.474;2023-08-08T11:58:19;7;7;
55754;PMS5003;41674;52.290;-1.474;2023-08-08T12:00:48;5;5;
55754;PMS5003;41674;52.290;-1.474;2023-08-08T12:03:18;4;4;
55754;PMS5003;41674;52.290;-1.474;2023-08-08T12:05:47;2;2;
55754;PMS5003;41674;52.290;-1.474;2023-08-08T12:08:17;1;1;
55754;PMS5003;41674;52.290;-1.474;2023-08-08T12:10:48;3;2;
55754;PMS5003;41674;52.290;-1.474;2023-08-08T12:13:19;2;2;
55754;PMS5003;41674;52.290;-1.474;2023-08-08T12:15:46;3;3;
55754;PMS5003;41674;52.290;-1.474;2023-08-08T12:18:16;2;2;
55754;PMS5003;41674;52.290;-1.474;2023-08-08T12:20:45;1;1;
55754;PMS5003;41674;52.290;-1.474;2023-08-08T12:23:14;2;2;
55754;PMS5003;41674;52.290;-1.474;2023-08-08T12:25:44;2;1;
55754;PMS5003;41674;52.290;-1.474;2023-08-08T12:28:13;4;3;
55754;PMS5003;41674;52.290;-1.474;2023-08-08T12:30:43;4;3;
55754;PMS5003;41674;52.290;-1.474;2023-08-08T12:33:12;2;2;
55754;PMS5003;41674;52.290;-1.474;2023-08-08T12:35:42;1;1;
55754;PMS5003;41674;52.290;-1.474;2023-08-08T12:38:12;3;1;
55754;PMS5003;41674;52.290;-1.474;2023-08-08T12:40:41;2;2;
55754;PMS5003;41674;52.290;-1.474;2023-08-08T12:43:10;3;3;
55754;PMS5003;41674;52.290;-1.474;2023-08-08T12:45:40;1;1;
55754;PMS5003;41674;52.290;-1.474;2023-08-08T12:48:10;1;1;
55754;PMS5003;41674;52.290;-1.474;2023-08-08T12:50:39;1;1;
55754;PMS5003;41674;52.290;-1.474;2023-08-08T12:53:09;2;2;
55754;PMS5003;41674;52.290;-1.474;2023-08-08T12:55:38;0;0;
55754;PMS5003;41674;52.290;-1.474;2023-08-08T12:58:08;1;1;
55754;PMS5003;41674;52.290;-1.474;2023-08-08T13:00:37;1;1;
55754;PMS5003;41674;52.290;-1.474;2023-08-08T13:03:07;0;0;
55754;PMS5003;41674;52.290;-1.474;2023-08-08T13:05:36;1;1;
55754;PMS5003;41674;52.290;-1.474;2023-08-08T13:08:06;0;0;
55754;PMS5003;41674;52.290;-1.474;2023-08-08T13:10:36;0;0;
55754;PMS5003;41674;52.290;-1.474;2023-08-08T13:13:05;1;1;
55754;PMS5003;41674;52.290;-1.474;2023-08-08T13:15:35;3;2;
55754;PMS5003;41674;52.290;-1.474;2023-08-08T13:18:04;1;1;
55754;PMS5003;41674;52.290;-1.474;2023-08-08T13:20:34;1;1;
55754;PMS5003;41674;52.290;-1.474;2023-08-08T13:23:04;3;1;
55754;PMS5003;41674;52.290;-1.474;2023-08-08T13:25:33;3;2;
55754;PMS5003;41674;52.290;-1.474;2023-08-08T13:28:03;3;1;
55754;PMS5003;41674;52.290;-1.474;2023-08-08T13:30:32;0;0;
55754;PMS5003;41674;52.290;-1.474;2023-08-08T13:33:02;1;1;
55754;PMS5003;41674;52.290;-1.474;2023-08-08T13:35:31;2;1;
55754;PMS5003;41674;52.290;-1.474;2023-08-08T13:38:01;1;1;
55754;PMS5003;41674;52.290;-1.474;2023-08-08T13:40:31;1;1;
55754;PMS5003;41674;52.290;-1.474;2023-08-08T13:43:00;0;0;
55754;PMS5003;41674;52.290;-1.474;2023-08-08T13:45:29;0;0;
55754;PMS5003;41674;52.290;-1.474;2023-08-08T13:47:59;1;1;
55754;PMS5003;41674;52.290;-1.474;2023-08-08T13:50:29;1;1;
55754;PMS5003;41674;52.290;-1.474;2023-08-08T13:52:58;1;1;
55754;PMS5003;41674;52.290;-1.474;2023-08-08T13:55:28;0;0;
55754;PMS5003;41674;52.290;-1.474;2023-08-08T13:57:57;1;1;
55754;PMS5003;41674;52.290;-1.474;2023-08-08T14:00:27;0;0;
55754;PMS5003;41674;52.290;-1.474;2023-08-08T14:02:57;1;1;
55754;PMS5003;41674;52.290;-1.474;2023-08-08T14:05:26;1;1;
55754;PMS5003;41674;52.290;-1.474;2023-08-08T14:07:56;1;1;
55754;PMS5003;41674;52.290;-1.474;2023-08-08T14:10:25;0;0;
55754;PMS5003;41674;52.290;-1.474;2023-08-08T14:12:55;0;0;
55754;PMS5003;41674;52.290;-1.474;2023-08-08T14:15:24;1;1;
55754;PMS5003;41674;52.290;-1.474;2023-08-08T14:17:54;0;0;
55754;PMS5003;41674;52.290;-1.474;2023-08-08T14:20:23;1;1;
55754;PMS5003;41674;52.290;-1.474;2023-08-08T14:22:53;1;1;
55754;PMS5003;41674;52.290;-1.474;2023-08-08T14:25:23;1;1;
55754;PMS5003;41674;52.290;-1.474;2023-08-08T14:27:52;1;1;
55754;PMS5003;41674;52.290;-1.474;2023-08-08T14:30:22;0;0;
55754;PMS5003;41674;52.290;-1.474;2023-08-08T14:32:51;1;1;
55754;PMS5003;41674;52.290;-1.474;2023-08-08T14:35:21;0;0;
55754;PMS5003;41674;52.290;-1.474;2023-08-08T14:40:20;0;0;
55754;PMS5003;41674;52.290;-1.474;2023-08-08T14:42:49;1;1;
55754;PMS5003;41674;52.290;-1.474;2023-08-08T14:45:19;0;0;
55754;PMS5003;41674;52.290;-1.474;2023-08-08T14:47:48;1;1;
55754;PMS5003;41674;52.290;-1.474;2023-08-08T14:50:18;0;0;
55754;PMS5003;41674;52.290;-1.474;2023-08-08T14:52:48;0;0;
55754;PMS5003;41674;52.290;-1.474;2023-08-08T14:55:17;1;0;
55754;PMS5003;41674;52.290;-1.474;2023-08-08T14:57:47;0;0;
55754;PMS5003;41674;52.290;-1.474;2023-08-08T15:00:16;1;1;
55754;PMS5003;41674;52.290;-1.474;2023-08-08T15:02:46;0;0;
55754;PMS5003;41674;52.290;-1.474;2023-08-08T15:05:15;0;0;
55754;PMS5003;41674;52.290;-1.474;2023-08-08T15:07:45;0;0;
55754;PMS5003;41674;52.290;-1.474;2023-08-08T15:10:14;0;0;
55754;PMS5003;41674;52.290;-1.474;2023-08-08T15:12:44;0;0;
55754;PMS5003;41674;52.290;-1.474;2023-08-08T15:15:13;0;0;
55754;PMS5003;41674;52.290;-1.474;2023-08-08T15:17:43;0;0;
55754;PMS5003;41674;52.290;-1.474;2023-08-08T15:20:12;1;1;
55754;PMS5003;41674;52.290;-1.474;2023-08-08T15:22:42;1;1;
55754;PMS5003;41674;52.290;-1.474;2023-08-08T15:25:11;0;0;
55754;PMS5003;41674;52.290;-1.474;2023-08-08T15:27:41;1;1;
55754;PMS5003;41674;52.290;-1.474;2023-08-08T15:30:11;1;1;
55754;PMS5003;41674;52.290;-1.474;2023-08-08T15:32:40;0;0;
55754;PMS5003;41674;52.290;-1.474;2023-08-08T15:35:10;2;2;
55754;PMS5003;41674;52.290;-1.474;2023-08-08T15:37:39;2;2;
55754;PMS5003;41674;52.290;-1.474;2023-08-08T15:40:10;0;0;
55754;PMS5003;41674;52.290;-1.474;2023-08-08T15:42:38;1;0;
55754;PMS5003;41674;52.290;-1.474;2023-08-08T15:45:08;0;0;
55754;PMS5003;41674;52.290;-1.474;2023-08-08T15:47:37;1;1;
55754;PMS5003;41674;52.290;-1.474;2023-08-08T15:50:07;1;1;
55754;PMS5003;41674;52.290;-1.474;2023-08-08T15:52:36;1;1;
55754;PMS5003;41674;52.290;-1.474;2023-08-08T15:55:06;1;1;
55754;PMS5003;41674;52.290;-1.474;2023-08-08T15:57:35;1;0;
55754;PMS5003;41674;52.290;-1.474;2023-08-08T16:00:05;1;1;
55754;PMS5003;41674;52.290;-1.474;2023-08-08T16:02:35;1;1;
55754;PMS5003;41674;52.290;-1.474;2023-08-08T16:05:04;1;1;
55754;PMS5003;41674;52.290;-1.474;2023-08-08T16:07:34;1;0;
55754;PMS5003;41674;52.290;-1.474;2023-08-08T16:10:04;0;0;
55754;PMS5003;41674;52.290;-1.474;2023-08-08T16:12:33;0;0;
55754;PMS5003;41674;52.290;-1.474;2023-08-08T16:15:02;1;1;
55754;PMS5003;41674;52.290;-1.474;2023-08-08T16:17:32;1;1;
55754;PMS5003;41674;52.290;-1.474;2023-08-08T16:20:01;1;1;
55754;PMS5003;41674;52.290;-1.474;2023-08-08T16:22:31;1;0;
55754;PMS5003;41674;52.290;-1.474;2023-08-08T16:25:00;0;0;
55754;PMS5003;41674;52.290;-1.474;2023-08-08T16:27:30;1;0;
55754;PMS5003;41674;52.290;-1.474;2023-08-08T16:29:59;1;1;
55754;PMS5003;41674;52.290;-1.474;2023-08-08T16:32:29;1;1;
55754;PMS5003;41674;52.290;-1.474;2023-08-08T16:34:58;0;0;
55754;PMS5003;41674;52.290;-1.474;2023-08-08T16:37:28;1;1;
55754;PMS5003;41674;52.290;-1.474;2023-08-08T16:39:57;1;0;
55754;PMS5003;41674;52.290;-1.474;2023-08-08T16:42:27;1;1;
55754;PMS5003;41674;52.290;-1.474;2023-08-08T16:44:56;0;0;
55754;PMS5003;41674;52.290;-1.474;2023-08-08T16:47:26;2;1;
55754;PMS5003;41674;52.290;-1.474;2023-08-08T16:49:55;3;3;
55754;PMS5003;41674;52.290;-1.474;2023-08-08T16:52:25;1;1;
55754;PMS5003;41674;52.290;-1.474;2023-08-08T16:54:55;0;0;